createdAt,value
2019-03-24T00:02:04.105Z,102449.40
2019-03-24T00:04:34.599Z,102449.95
2019-03-24T00:07:05.414Z,102451.45
2019-03-24T00:09:35.924Z,102460.20
2019-03-24T00:12:06.511Z,102461.60
2019-03-24T00:14:37.178Z,102467.69
2019-03-24T00:17:07.632Z,102465.77
2019-03-24T00:19:38.045Z,102464.52
2019-03-24T00:22:08.507Z,102463.27
2019-03-24T00:24:39.039Z,102453.95
2019-03-24T00:27:09.513Z,102458.16
2019-03-24T00:29:39.958Z,102459.73
2019-03-24T00:32:10.455Z,102457.23
2019-03-24T00:34:40.980Z,102458.41
2019-03-24T00:37:11.488Z,102461.94
2019-03-24T00:39:42.226Z,102454.56
2019-03-24T00:42:12.699Z,102457.77
2019-03-24T00:44:43.449Z,102454.16
2019-03-24T00:47:13.784Z,102448.86
2019-03-24T00:49:44.321Z,102452.48
2019-03-24T00:52:14.843Z,102442.16
2019-03-24T00:54:45.370Z,102440.78
2019-03-24T00:57:15.866Z,102443.74
2019-03-24T00:59:46.388Z,102434.70
2019-03-24T01:02:16.840Z,102437.20
2019-03-24T01:04:47.612Z,102433.91
2019-03-24T01:07:17.935Z,102436.75
2019-03-24T01:09:49.201Z,102438.70
2019-03-24T01:12:19.667Z,102429.38
2019-03-24T01:14:50.017Z,102426.97
2019-03-24T01:17:20.331Z,102430.17
2019-03-24T01:19:50.803Z,102432.09
2019-03-24T01:22:21.270Z,102429.96
2019-03-24T01:24:51.812Z,102421.47
2019-03-24T01:27:22.193Z,102422.84
2019-03-24T01:29:53.163Z,102420.01
2019-03-24T01:32:23.561Z,102423.51
2019-03-24T01:34:54.037Z,102417.84
2019-03-24T01:37:24.582Z,102417.39
2019-03-24T01:39:55.083Z,102423.00
2019-03-24T01:42:25.479Z,102418.80
2019-03-24T01:44:55.948Z,102417.25
2019-03-24T01:47:26.442Z,102409.55
2019-03-24T01:49:56.897Z,102409.25
2019-03-24T01:52:27.245Z,102406.50
2019-03-24T01:54:57.763Z,102393.70
2019-03-24T01:57:29.764Z,102400.64
2019-03-24T02:00:00.320Z,102393.94
2019-03-24T02:02:30.817Z,102389.86
2019-03-24T02:05:01.408Z,102387.40
2019-03-24T02:07:33.070Z,102396.37
2019-03-24T02:10:03.756Z,102406.72
2019-03-24T02:12:34.139Z,102401.30
2019-03-24T02:15:06.031Z,102402.31
2019-03-24T02:17:36.512Z,102408.55
2019-03-24T02:20:07.064Z,102404.22
2019-03-24T02:22:37.569Z,102406.17
2019-03-24T02:25:08.558Z,102403.33
2019-03-24T02:27:39.020Z,102401.08
2019-03-24T02:30:10.175Z,102402.23
2019-03-24T02:32:40.766Z,102392.86
2019-03-24T02:35:11.565Z,102392.98
2019-03-24T02:37:42.328Z,102389.91
2019-03-24T02:40:12.891Z,102384.49
2019-03-24T02:42:43.196Z,102386.75
2019-03-24T02:45:13.925Z,102387.76
2019-03-24T02:47:44.517Z,102391.38
2019-03-24T02:50:15.073Z,102389.77
2019-03-24T02:52:47.922Z,102377.99
2019-03-24T02:55:18.486Z,102377.99
2019-03-24T02:57:48.944Z,102391.38
2019-03-24T03:00:19.881Z,102387.05
2019-03-24T03:02:50.594Z,102372.91
2019-03-24T03:05:21.087Z,102384.56
2019-03-24T03:07:51.390Z,102384.56
2019-03-24T03:10:21.837Z,102374.48
2019-03-24T03:12:52.121Z,102376.98
2019-03-24T03:15:22.443Z,102382.19
2019-03-24T03:17:52.907Z,102383.64
2019-03-24T03:20:23.365Z,102378.53
2019-03-24T03:22:53.744Z,102376.72
2019-03-24T03:25:24.055Z,102370.48
2019-03-24T03:27:54.400Z,102360.50
2019-03-24T03:30:24.737Z,102367.19
2019-03-24T03:32:55.415Z,102363.57
2019-03-24T03:35:25.894Z,102363.78
2019-03-24T03:37:56.480Z,102358.95
2019-03-24T03:40:26.925Z,102358.95
2019-03-24T03:42:57.273Z,102361.41
2019-03-24T03:45:29.158Z,102328.89
2019-03-24T03:47:59.473Z,102361.31
2019-03-24T03:50:30.056Z,102357.97
2019-03-24T03:53:00.463Z,102359.30
2019-03-24T03:55:31.158Z,102359.30
2019-03-24T03:58:01.600Z,102354.77
2019-03-24T04:00:36.192Z,102350.56
2019-03-24T04:03:06.537Z,102349.65
2019-03-24T04:05:36.856Z,102353.20
2019-03-24T04:08:07.462Z,102353.20
2019-03-24T04:10:37.769Z,102345.78
2019-03-24T04:13:08.143Z,102346.72
2019-03-24T04:15:38.517Z,102344.86
2019-03-24T04:18:09.100Z,102344.86
2019-03-24T04:20:39.713Z,102352.36
2019-03-24T04:23:10.084Z,102352.36
2019-03-24T04:25:40.843Z,102335.03
2019-03-24T04:28:11.503Z,102345.84
2019-03-24T04:30:41.983Z,102345.84
2019-03-24T04:33:12.296Z,102339.60
2019-03-24T04:35:42.932Z,102329.41
2019-03-24T04:38:13.252Z,102326.77
2019-03-24T04:40:43.565Z,102323.39
2019-03-24T04:43:13.946Z,102333.52
2019-03-24T04:45:44.722Z,102335.43
2019-03-24T04:48:15.081Z,102337.31
2019-03-24T04:50:45.491Z,102342.45
2019-03-24T04:53:15.840Z,102342.45
2019-03-24T04:55:46.446Z,102331.28
2019-03-24T04:58:16.930Z,102331.28
2019-03-24T05:00:47.376Z,102339.11
2019-03-24T05:03:17.933Z,102335.27
2019-03-24T05:05:49.133Z,102342.18
2019-03-24T05:08:20.133Z,102336.76
2019-03-24T05:10:50.463Z,102336.76
2019-03-24T05:13:21.276Z,102333.03
2019-03-24T05:15:51.655Z,102331.10
2019-03-24T05:18:22.584Z,102328.16
2019-03-24T05:20:52.865Z,102297.39
2019-03-24T05:23:23.494Z,102323.71
2019-03-24T05:25:53.991Z,102319.17
2019-03-24T05:28:24.931Z,102317.83
2019-03-24T05:30:55.180Z,102321.66
2019-03-24T05:33:25.509Z,102310.82
2019-03-24T05:35:57.181Z,102312.95
2019-03-24T05:38:27.942Z,102308.43
2019-03-24T05:40:58.238Z,102308.95
2019-03-24T05:43:28.720Z,102308.95
2019-03-24T05:45:58.992Z,102306.03
2019-03-24T05:48:29.335Z,102302.70
2019-03-24T05:50:59.691Z,102302.70
2019-03-24T05:53:30.858Z,102296.22
2019-03-24T05:56:01.577Z,102296.23
2019-03-24T05:58:32.317Z,102293.72
2019-03-24T06:01:02.767Z,102290.16
2019-03-24T06:03:33.078Z,102289.79
2019-03-24T06:06:03.712Z,102285.95
2019-03-24T06:08:35.775Z,102290.58
2019-03-24T06:11:07.732Z,102283.39
2019-03-24T06:13:38.177Z,102281.91
2019-03-24T06:16:08.553Z,102286.80
2019-03-24T06:18:39.942Z,102283.99
2019-03-24T06:21:10.234Z,102285.69
2019-03-24T06:23:40.693Z,102279.15
2019-03-24T06:26:11.231Z,102279.15
2019-03-24T06:28:42.437Z,102282.14
2019-03-24T06:31:12.932Z,102274.64
2019-03-24T06:33:43.413Z,102279.73
2019-03-24T06:36:13.763Z,102265.77
2019-03-24T06:38:44.152Z,102272.96
2019-03-24T06:41:14.529Z,102272.96
2019-03-24T06:43:45.205Z,102281.48
2019-03-24T06:46:15.791Z,102274.58
2019-03-24T06:48:46.482Z,102270.92
2019-03-24T06:51:17.120Z,102328.27
2019-03-24T06:53:47.836Z,102285.83
2019-03-24T06:56:18.394Z,102287.55
2019-03-24T06:58:48.847Z,102285.46
2019-03-24T07:01:20.881Z,102283.73
2019-03-24T07:03:51.206Z,102270.85
2019-03-24T07:06:21.571Z,102267.95
2019-03-24T07:08:51.985Z,102260.31
2019-03-24T07:11:23.047Z,102267.82
2019-03-24T07:13:53.325Z,102263.35
2019-03-24T07:16:24.058Z,102263.28
2019-03-24T07:18:54.626Z,102261.70
2019-03-24T07:21:25.053Z,102258.81
2019-03-24T07:23:55.956Z,102254.52
2019-03-24T07:26:26.568Z,102248.77
2019-03-24T07:28:56.854Z,102245.44
2019-03-24T07:31:27.232Z,102248.27
2019-03-24T07:33:57.604Z,102243.21
2019-03-24T07:36:27.927Z,102245.85
2019-03-24T07:38:58.540Z,102245.61
2019-03-24T07:41:29.024Z,102239.63
2019-03-24T07:43:59.455Z,102233.20
2019-03-24T07:46:30.109Z,102229.89
2019-03-24T07:49:00.454Z,102229.91
2019-03-24T07:51:30.733Z,102235.00
2019-03-24T07:54:01.154Z,102233.27
2019-03-24T07:56:31.511Z,102234.55
2019-03-24T08:04:54.417Z,102236.88
2019-03-24T08:07:24.914Z,102233.80
2019-03-24T08:09:57.910Z,102227.83
2019-03-24T08:12:28.702Z,102234.50
2019-03-24T08:15:00.068Z,102241.47
2019-03-24T08:17:30.604Z,102236.52
2019-03-24T08:20:12.512Z,102237.19
2019-03-24T08:22:43.010Z,102251.92
2019-03-24T08:25:13.560Z,102253.16
2019-03-24T08:27:44.006Z,102255.05
2019-03-24T08:30:16.082Z,102258.45
2019-03-24T08:32:46.573Z,102252.66
2019-03-24T08:35:17.331Z,102259.17
2019-03-24T08:37:47.941Z,102252.55
2019-03-24T08:40:18.882Z,102256.50
2019-03-24T08:42:49.369Z,102246.15
2019-03-24T08:45:28.092Z,102237.31
2019-03-24T08:47:59.112Z,102241.02
2019-03-24T08:50:29.920Z,102234.70
2019-03-24T08:53:00.360Z,102234.55
2019-03-24T08:55:32.571Z,102226.50
2019-03-24T08:58:03.414Z,102219.80
2019-03-24T09:00:34.456Z,102224.11
2019-03-24T09:03:05.225Z,102229.88
2019-03-24T09:05:35.792Z,102222.70
2019-03-24T09:08:06.439Z,102217.43
2019-03-24T09:10:36.991Z,102214.66
2019-03-24T09:13:07.495Z,102204.92
2019-03-24T09:15:38.167Z,102198.73
2019-03-24T09:18:08.588Z,102195.42
2019-03-24T09:20:41.811Z,102194.28
2019-03-24T09:23:11.493Z,102205.30
2019-03-24T09:25:41.831Z,102194.06
2019-03-24T09:28:12.353Z,102186.49
2019-03-24T09:30:42.697Z,102186.77
2019-03-24T09:33:13.411Z,102185.52
2019-03-24T09:35:43.786Z,102172.95
2019-03-24T09:38:14.212Z,102162.42
2019-03-24T09:40:44.698Z,102159.19
2019-03-24T09:43:15.219Z,102159.28
2019-03-24T09:45:45.597Z,102153.08
2019-03-24T09:48:15.982Z,102137.66
2019-03-24T09:50:46.343Z,102142.98
2019-03-24T09:53:17.148Z,102142.52
2019-03-24T09:55:47.532Z,102141.52
2019-03-24T09:58:19.060Z,102140.95
2019-03-24T10:00:50.079Z,102141.62
2019-03-24T10:03:20.404Z,102148.72
2019-03-24T10:05:50.847Z,102142.47
2019-03-24T10:08:22.042Z,102144.07
2019-03-24T10:10:52.340Z,102132.96
2019-03-24T10:13:22.676Z,102117.20
2019-03-24T10:15:53.154Z,102111.87
2019-03-24T10:18:23.459Z,102111.63
2019-03-24T10:20:54.123Z,102113.45
2019-03-24T10:23:24.500Z,102108.42
2019-03-24T10:25:55.659Z,102106.64
2019-03-24T10:28:32.738Z,102085.24
2019-03-24T10:31:03.435Z,102089.00
2019-03-24T10:33:33.887Z,102083.26
2019-03-24T10:36:04.308Z,102077.14
2019-03-24T10:38:34.744Z,102083.95
2019-03-24T10:41:05.277Z,102090.58
2019-03-24T10:43:35.653Z,102082.97
2019-03-24T10:46:06.781Z,102084.91
2019-03-24T10:48:37.159Z,102081.48
2019-03-24T10:51:07.504Z,102069.67
2019-03-24T10:53:37.981Z,102068.23
2019-03-24T10:56:09.415Z,102069.60
2019-03-24T10:58:39.783Z,102069.44
2019-03-24T11:01:10.187Z,102070.94
2019-03-24T11:03:40.790Z,102073.31
2019-03-24T11:06:11.252Z,102074.02
2019-03-24T11:08:42.947Z,102081.42
2019-03-24T11:11:13.362Z,102077.81
2019-03-24T11:13:43.740Z,102073.27
2019-03-24T11:16:14.470Z,102068.34
2019-03-24T11:18:44.950Z,102066.64
2019-03-24T11:21:15.308Z,102061.20
2019-03-24T11:23:45.859Z,102049.67
2019-03-24T11:26:16.283Z,102038.75
2019-03-24T11:28:46.733Z,102024.34
2019-03-24T11:31:17.370Z,102025.69
2019-03-24T11:33:48.608Z,102016.61
2019-03-24T11:36:21.164Z,102014.31
2019-03-24T11:38:55.549Z,102013.96
2019-03-24T11:41:25.562Z,102005.09
2019-03-24T11:43:56.619Z,101998.66
2019-03-24T11:46:29.180Z,101996.80
2019-03-24T11:49:00.691Z,101986.83
2019-03-24T11:51:31.635Z,101977.60
2019-03-24T11:54:02.662Z,101976.73
2019-03-24T11:56:33.714Z,101973.77
2019-03-24T11:59:06.341Z,101969.35
2019-03-24T12:01:38.436Z,101973.29
2019-03-24T12:04:10.427Z,101970.38
2019-03-24T12:06:41.642Z,101966.95
2019-03-24T12:09:15.194Z,101976.41
2019-03-24T12:11:46.670Z,101966.67
2019-03-24T12:14:18.848Z,101967.06
2019-03-24T12:17:09.376Z,101967.69
2019-03-24T12:19:40.661Z,101963.67
2019-03-24T12:22:33.557Z,101957.28
2019-03-24T12:25:11.490Z,101957.20
2019-03-24T12:28:12.424Z,101948.67
2019-03-24T12:30:55.099Z,101943.30
2019-03-24T12:33:26.790Z,101937.98
2019-03-24T12:36:11.690Z,101941.84
2019-03-24T12:39:01.294Z,101944.20
2019-03-24T12:41:27.861Z,101932.66
2019-03-24T12:44:24.988Z,101932.13
2019-03-24T12:46:56.404Z,101925.36
2019-03-24T12:49:32.049Z,101929.58
2019-03-24T12:52:06.194Z,101924.38
2019-03-24T12:54:41.782Z,101916.88
2019-03-24T12:57:13.369Z,101911.00
2019-03-24T12:59:45.123Z,101885.07
2019-03-24T13:02:15.447Z,101902.97
2019-03-24T13:04:46.292Z,101905.45
2019-03-24T13:07:16.644Z,101901.00
2019-03-24T13:09:47.026Z,101905.06
2019-03-24T13:12:17.438Z,101908.37
2019-03-24T13:14:49.449Z,101898.72
2019-03-24T13:17:19.771Z,101892.06
2019-03-24T13:19:50.288Z,101894.50
2019-03-24T13:22:21.031Z,101890.33
2019-03-24T13:24:51.619Z,101886.30
2019-03-24T13:27:21.948Z,101886.54
2019-03-24T13:29:53.315Z,101881.05
2019-03-24T13:32:23.785Z,101878.92
2019-03-24T13:34:54.600Z,101880.43
2019-03-24T13:37:25.312Z,101884.02
2019-03-24T13:39:55.810Z,101873.20
2019-03-24T13:42:26.191Z,101873.28
2019-03-24T13:44:56.656Z,101863.78
2019-03-24T13:47:30.447Z,101866.11
2019-03-24T13:50:00.876Z,101859.49
2019-03-24T13:52:31.310Z,101849.71
2019-03-24T13:55:01.848Z,101855.22
2019-03-24T13:57:33.022Z,101855.64
2019-03-24T14:00:03.934Z,101845.97
2019-03-24T14:02:35.558Z,101828.81
2019-03-24T14:05:07.495Z,101842.19
2019-03-24T14:07:38.709Z,101839.92
2019-03-24T14:10:09.524Z,101836.47
2019-03-24T14:12:39.928Z,101833.27
2019-03-24T14:15:10.512Z,101836.20
2019-03-24T14:17:40.972Z,101831.30
2019-03-24T14:20:11.600Z,101836.98
2019-03-24T14:22:42.026Z,101832.14
2019-03-24T14:25:12.591Z,101825.42
2019-03-24T14:27:42.947Z,101820.06
2019-03-24T14:30:27.193Z,101822.38
2019-03-24T14:32:57.599Z,101818.80
2019-03-24T14:35:27.997Z,101816.98
2019-03-24T14:37:58.304Z,101815.41
2019-03-24T14:40:28.885Z,101820.37
2019-03-24T14:42:59.622Z,101815.50
2019-03-24T14:45:29.963Z,101821.51
2019-03-24T14:48:00.594Z,101815.98
2019-03-24T14:50:30.951Z,101812.27
2019-03-24T14:53:01.326Z,101803.61
2019-03-24T14:55:31.706Z,101792.14
2019-03-24T14:58:02.269Z,101790.88
2019-03-24T15:00:37.855Z,101789.81
2019-03-24T15:03:08.430Z,101781.70
2019-03-24T15:05:38.908Z,101786.52
2019-03-24T15:08:09.914Z,101783.88
2019-03-24T15:10:40.561Z,101782.67
2019-03-24T15:13:11.212Z,101778.70
2019-03-24T15:15:41.661Z,101781.80
2019-03-24T15:18:12.344Z,101779.25
2019-03-24T15:20:42.682Z,101779.92
2019-03-24T15:23:12.961Z,101777.25
2019-03-24T15:25:43.340Z,101775.73
2019-03-24T15:28:13.768Z,101773.21
2019-03-24T15:30:44.491Z,101763.72
2019-03-24T15:33:14.894Z,101760.91
2019-03-24T15:35:45.329Z,101765.87
2019-03-24T15:38:15.666Z,101757.41
2019-03-24T15:40:49.497Z,101752.66
2019-03-24T15:43:18.603Z,101753.95
2019-03-24T15:45:51.168Z,101751.12
2019-03-24T15:48:21.966Z,101744.88
2019-03-24T15:50:52.351Z,101740.43
2019-03-24T15:53:22.777Z,101744.79
2019-03-24T15:55:53.078Z,101742.59
2019-03-24T15:58:23.524Z,101739.88
2019-03-24T16:00:54.147Z,101731.45
2019-03-24T16:03:24.614Z,101728.02
2019-03-24T16:05:56.407Z,101727.86
2019-03-24T16:08:27.337Z,101735.09
2019-03-24T16:10:57.798Z,101732.25
2019-03-24T16:13:28.545Z,101732.06
2019-03-24T16:15:58.994Z,101726.50
2019-03-24T16:18:29.379Z,101726.34
2019-03-24T16:20:59.801Z,101730.70
2019-03-24T16:23:30.270Z,101728.05
2019-03-24T16:26:00.856Z,101727.36
2019-03-24T16:28:31.261Z,101719.29
2019-03-24T16:31:01.757Z,101719.70
2019-03-24T16:33:32.045Z,101719.89
2019-03-24T16:36:02.704Z,101714.87
2019-03-24T16:38:33.104Z,101710.23
2019-03-24T16:41:03.664Z,101713.70
2019-03-24T16:43:34.015Z,101706.91
2019-03-24T16:46:04.307Z,101709.98
2019-03-24T16:48:37.012Z,101710.17
2019-03-24T16:51:06.852Z,101711.99
2019-03-24T16:53:37.240Z,101715.60
2019-03-24T16:56:07.690Z,101709.13
2019-03-24T16:58:38.320Z,101713.30
2019-03-24T17:01:08.737Z,101715.98
2019-03-24T17:03:39.449Z,101712.97
2019-03-24T17:06:10.313Z,101700.95
2019-03-24T17:08:41.024Z,101702.06
2019-03-24T17:11:11.712Z,101700.82
2019-03-24T17:13:43.175Z,101699.38
2019-03-24T17:16:13.642Z,101692.22
2019-03-24T17:18:43.956Z,101696.92
2019-03-24T17:21:14.349Z,101696.92
2019-03-24T17:23:44.664Z,101695.51
2019-03-24T17:26:15.090Z,101695.52
2019-03-24T17:28:47.020Z,101695.33
2019-03-24T17:31:18.232Z,101687.63
2019-03-24T17:33:48.530Z,101689.59
2019-03-24T17:36:19.173Z,101682.26
2019-03-24T17:38:50.444Z,101682.45
2019-03-24T17:41:21.087Z,101678.87
2019-03-24T17:43:51.474Z,101679.23
2019-03-24T17:46:21.829Z,101683.56
2019-03-24T17:48:52.555Z,101688.94
2019-03-24T17:51:22.934Z,101695.19
2019-03-24T17:53:53.523Z,101688.02
2019-03-24T17:56:23.973Z,101687.32
2019-03-24T17:58:54.414Z,101683.00
2019-03-24T18:01:25.107Z,101681.02
2019-03-24T18:03:55.536Z,101683.19
2019-03-24T18:06:26.587Z,101686.05
2019-03-24T18:08:57.055Z,101685.88
2019-03-24T18:11:27.957Z,101687.47
2019-03-24T18:13:58.362Z,101680.47
2019-03-24T18:16:29.096Z,101680.47
2019-03-24T18:19:00.577Z,101679.22
2019-03-24T18:21:31.371Z,101678.14
2019-03-24T18:24:01.837Z,101672.95
2019-03-24T18:26:32.148Z,101668.63
2019-03-24T18:29:02.571Z,101675.62
2019-03-24T18:31:33.512Z,101666.29
2019-03-24T18:34:03.832Z,101666.45
2019-03-24T18:36:34.276Z,101663.01
2019-03-24T18:39:07.628Z,101660.32
2019-03-24T18:41:38.186Z,101662.62
2019-03-24T18:44:08.600Z,101664.59
2019-03-24T18:46:39.014Z,101657.59
2019-03-24T18:49:09.503Z,101648.83
2019-03-24T18:51:40.020Z,101655.31
2019-03-24T18:54:10.382Z,101653.67
2019-03-24T18:56:40.930Z,101651.55
2019-03-24T18:59:11.520Z,101648.87
2019-03-24T19:01:41.840Z,101644.55
2019-03-24T19:04:12.270Z,101643.11
2019-03-24T19:06:43.407Z,101637.54
2019-03-24T19:09:13.831Z,101634.13
2019-03-24T19:11:44.227Z,101631.61
2019-03-24T19:14:14.741Z,101630.36
2019-03-24T19:16:45.304Z,101626.08
2019-03-24T19:19:15.594Z,101619.59
2019-03-24T19:21:46.148Z,101618.72
2019-03-24T19:24:16.594Z,101623.69
2019-03-24T19:26:47.643Z,101620.84
2019-03-24T19:29:18.368Z,101623.67
2019-03-24T19:31:49.064Z,101624.75
2019-03-24T19:34:19.504Z,101618.98
2019-03-24T19:36:50.440Z,101621.48
2019-03-24T19:39:21.004Z,101623.43
2019-03-24T19:41:51.359Z,101621.44
2019-03-24T19:44:21.971Z,101620.73
2019-03-24T19:46:52.541Z,101618.02
2019-03-24T19:49:22.920Z,101618.39
2019-03-24T19:51:53.333Z,101616.24
2019-03-24T19:54:23.721Z,101622.00
2019-03-24T19:56:54.018Z,101612.00
2019-03-24T19:59:24.461Z,101613.47
2019-03-24T20:01:54.891Z,101612.06
2019-03-24T20:04:25.381Z,101612.63
2019-03-24T20:06:56.083Z,101611.91
2019-03-24T20:09:26.773Z,101611.91
2019-03-24T20:11:57.547Z,101604.94
2019-03-24T20:14:27.895Z,101596.70
2019-03-24T20:16:59.300Z,101590.46
2019-03-24T20:19:29.725Z,101583.47
2019-03-24T20:22:00.076Z,101584.02
2019-03-24T20:24:30.581Z,101578.83
2019-03-24T20:27:00.924Z,101585.63
2019-03-24T20:29:31.386Z,101572.01
2019-03-24T20:32:01.765Z,101568.98
2019-03-24T20:34:32.549Z,101567.90
2019-03-24T20:37:02.858Z,101559.30
2019-03-24T20:39:34.680Z,101553.94
2019-03-24T20:42:05.835Z,101554.28
2019-03-24T20:44:36.165Z,101555.22
2019-03-24T20:47:06.520Z,101552.34
2019-03-24T20:49:37.074Z,101552.53
2019-03-24T20:52:07.509Z,101544.66
2019-03-24T20:54:37.829Z,101533.31
2019-03-24T20:57:08.458Z,101539.07
2019-03-24T20:59:38.983Z,101540.30
2019-03-24T21:02:09.336Z,101538.31
2019-03-24T21:04:40.222Z,101533.85
2019-03-24T21:07:10.587Z,101528.11
2019-03-24T21:09:40.993Z,101534.03
2019-03-24T21:12:11.462Z,101529.57
2019-03-24T21:14:41.784Z,101524.00
2019-03-24T21:17:12.178Z,101523.83
2019-03-24T21:19:44.891Z,101515.41
2019-03-24T21:22:15.682Z,101514.50
2019-03-24T21:24:46.259Z,101507.12
2019-03-24T21:27:16.656Z,101513.55
2019-03-24T21:29:47.104Z,101508.14
2019-03-24T21:32:17.491Z,101507.95
2019-03-24T21:34:47.771Z,101510.05
2019-03-24T21:37:18.222Z,101503.09
2019-03-24T21:39:48.796Z,101495.19
2019-03-24T21:42:19.145Z,101486.24
2019-03-24T21:44:49.688Z,101484.59
2019-03-24T21:47:19.998Z,101477.06
2019-03-24T21:49:50.331Z,101480.27
2019-03-24T21:52:20.657Z,101475.98
2019-03-24T21:54:51.483Z,101473.30
2019-03-24T21:57:21.865Z,101478.66
2019-03-24T21:59:52.233Z,101471.13
2019-03-24T22:02:22.678Z,101474.13
2019-03-24T22:04:55.878Z,101470.15
2019-03-24T22:07:25.371Z,101469.06
2019-03-24T22:09:55.785Z,101463.55
2019-03-24T22:12:26.083Z,101463.06
2019-03-24T22:14:56.533Z,101463.81
2019-03-24T22:17:27.054Z,101462.22
2019-03-24T22:19:57.702Z,101467.05
2019-03-24T22:22:28.309Z,101463.47
2019-03-24T22:24:58.891Z,101466.50
2019-03-24T22:27:29.182Z,101457.05
2019-03-24T22:29:59.552Z,101453.99
2019-03-24T22:32:29.978Z,101455.98
2019-03-24T22:35:00.458Z,101452.94
2019-03-24T22:37:30.956Z,101454.86
2019-03-24T22:40:01.293Z,101455.70
2019-03-24T22:42:31.608Z,101450.67
2019-03-24T22:45:01.991Z,101450.61
2019-03-24T22:47:32.397Z,101450.41
2019-03-24T22:50:02.725Z,101431.47
2019-03-24T22:52:33.119Z,101409.61
2019-03-24T22:55:03.566Z,101430.06
2019-03-24T22:57:34.249Z,101428.27
2019-03-24T23:00:06.978Z,101438.84
2019-03-24T23:02:38.323Z,101418.86
2019-03-24T23:05:09.028Z,101418.86
2019-03-24T23:07:39.303Z,101414.23
2019-03-24T23:10:09.772Z,101405.48
2019-03-24T23:12:40.077Z,101402.43
2019-03-24T23:15:10.883Z,101402.98
2019-03-24T23:17:41.358Z,101390.25
2019-03-24T23:20:12.013Z,101388.64
2019-03-24T23:22:42.467Z,101373.81
2019-03-24T23:25:13.057Z,101368.58
2019-03-24T23:27:44.494Z,101369.98
2019-03-24T23:30:15.086Z,101367.98
2019-03-24T23:32:45.555Z,101357.96
2019-03-24T23:35:16.073Z,101349.19
2019-03-24T23:37:46.378Z,101346.30
2019-03-24T23:40:17.109Z,101344.85
2019-03-24T23:42:47.682Z,101333.03
2019-03-24T23:45:18.051Z,101335.00
2019-03-24T23:47:48.434Z,101326.23
2019-03-24T23:50:18.898Z,101319.77
2019-03-24T23:52:49.264Z,101318.15
2019-03-24T23:55:19.665Z,101314.38
2019-03-24T23:57:50.093Z,101314.38
